Résultats événements

23/06/2019 Triathlon de Chalain 2019-Triathlon 12 15 ans




Sortie natation

Arrivée vélo

Arrivée
Categorie:

Clt Temps de course Nom Dos Cat Temps sur l'intervalle Clt int. Gain
1 00:22:07 ROUX Corentin 40 MMI 00:07:19 2 1
2 00:22:21 MAILLOT Nicolas 107 MMI 00:07:32 4 1
3 00:22:43 POSTAL Pierre 29 MMI 00:07:53 14 1
4 00:22:56 DUNAND Killian 44 MMI 00:08:10 24 -3
5 00:23:05 POSTAL Adrien 33 MMI 00:08:13 25 0
6 00:23:05 FURDERER Karl 70 MBE 00:07:17 1 7
7 00:23:16 HEQUET Thomas 55 MMI 00:07:48 11 -1
8 00:23:17 CAMUS Gaspard 103 MMI 00:07:44 9 -1
9 00:23:29 MOLINAS Léo 114 MMI 00:07:44 8 3
10 00:23:30 MENETRE Gabin 81 MBE 00:07:38 5 6
11 00:23:30 NESSAKH Adam 104 MBE 00:07:40 7 3
12 00:23:38 ALIX Gabin 32 MMI 00:07:56 16 -1
13 00:23:46 CARLOT Nathan 76 MMI 00:07:21 3 13
14 00:23:48 DANTAND Manon 69 FMI 00:08:14 28 -6
15 00:23:55 BRESSAC Justin 19 MMI 00:07:50 13 6
16 00:23:55 GRIVAULT Marius 96 MMI 00:08:21 34 -7
17 00:23:56 LOISY Raphael 50 MMI 00:07:47 10 5
18 00:24:04 MALVEZIN Antoine 2 MBE 00:08:08 23 -1
19 00:24:06 SUDRE Jane 139 FMI 00:08:01 20 1
20 00:24:13 LATIL Marion 36 FMI 00:07:49 12 5
21 00:24:17 TSCHENN Zélie 13 FMI 00:08:13 27 -2
22 00:24:18 LALANDE Elie 106 MMI 00:07:54 15 5
23 00:24:20 POINSOT Marius 135 MMI 00:08:19 30 -5
24 00:24:21 LANCE Corentin 79 MBE 00:08:30 39 -9
25 00:24:27 GABET BRUGVIN Mathis 41 MMI 00:07:59 17 4
26 00:24:37 BEAUVIR Claire 26 FMI 00:08:06 21 4
27 00:24:40 HALBOURG Noa 85 MBE 00:08:08 22 4
28 00:24:43 LE METAYER Léo 110 MBE 00:07:39 6 17
29 00:24:45 DEVAUX Clemence 35 FBE 00:08:13 26 3
30 00:24:48 BALLET Antoine 100 MBE 00:08:20 33 -2
31 00:25:06 AUBER Juliette 27 FMI 00:08:16 29 7
32 00:25:06 GUEDON Clement 30 MBE 00:08:00 18 16
33 00:25:07 CHABOD Romane 80 FBE 00:08:44 45 -9
34 00:25:12 DEGUISNE Floriane 132 FMI 00:08:25 35 1
35 00:25:22 PHILIPPE Marilys 1 FBE 00:08:47 51 -2
36 00:25:26 DEPARDIEU Simon 39 MMI 00:09:06 61 -13
37 00:25:29 SEURIOT Amaury 16 MMI 00:08:26 37 6
38 00:25:30 TSCHENN Clément 11 MBE 00:08:01 19 16
39 00:25:32 GUICHARD Nathan 133 MMI 00:09:57 94 -29
40 00:25:43 DEVAUX Alice 42 FMI 00:08:55 55 -3
41 00:25:46 BRANCHE Manoah 46 MMI 00:08:19 31 12
42 00:25:51 TRIPONEZ Maëline 67 FBE 00:08:46 47 5
43 00:25:59 PETIT Pierre 128 MMI 00:08:46 48 6
44 00:26:03 MATHIEU Enza 63 FMI 00:09:00 58 0
45 00:26:09 FAVIER Lucile 49 FBE 00:08:45 46 6
46 00:26:10 SCHIFANO Jules 78 MMI 00:09:16 73 -6
47 00:26:11 DENIZOT Mathis 38 MMI 00:08:47 49 5
48 00:26:12 DA EIRA Marine 97 FMI 00:08:39 43 8
49 00:26:18 CLERGET Emma 9 FBE 00:08:34 41 8
50 00:26:21 REMY Clemence 136 FMI 00:09:30 79 -11
51 00:26:26 HUOT-MARCHAND Gregoire 31 MBE 00:08:25 36 15
52 00:26:28 VIARD Clement 105 MMI 00:08:56 56 3
53 00:26:36 PLOTTIER HARTMANN Alexandre 127 MBE 00:08:50 52 5
54 00:26:42 MUNIERE Paul 82 MMI 00:09:55 92 -18
55 00:26:43 DARGENTOLLE Gabriel 109 MBE 00:08:19 32 18
56 00:26:45 GUERNIER Paul 25 MBE 00:08:55 54 7
57 00:26:46 OLID Rodrigue 51 MMI 00:09:46 85 -15
58 00:26:54 ALCARAS Maxence 6 MBE 00:10:13 102 -24
59 00:26:55 CHARUEL Martin 5 MBE 00:09:00 57 6
60 00:26:58 DORIGO Romain 121 MMI 00:09:09 65 1
61 00:27:02 FUIN Leane 14 FBE 00:09:10 66 3
62 00:27:09 FATET Elisa 130 FBE 00:08:43 44 12
63 00:27:13 GOURAUD Jules 99 MBE 00:09:06 60 5
64 00:27:16 DELANCE Aurel 47 MMI 00:10:21 104 -23
65 00:27:16 GRILLOT Marie 83 FMI 00:09:55 93 -15
66 00:27:20 FASSENET Juliette 113 FMI 00:09:02 59 4
67 00:27:26 CHAKRI Adele 112 MBE 00:09:37 83 -7
68 00:27:26 FLORENTIN Fanny 88 FBE 00:09:36 82 -6
69 00:27:27 LANOUX Tonin 48 MMI 00:09:13 68 0
70 00:27:29 GAVOILLE Marie 75 MV2 00:08:30 38 10
71 00:27:33 PROST Octave 24 MBE 00:09:10 67 0
72 00:27:39 PELETTE Julian 129 MBE 00:09:51 91 -13
73 00:27:39 MONNIER BENOIT Timothee 57 MBE 00:08:31 40 17
74 00:27:40 DARGENTOLLE Lola 137 FMI 00:08:37 42 10
75 00:28:02 BOURDIN Alice 66 FMI 00:09:20 76 3
76 00:28:07 GAGNEPAIN Adam 59 MBE 00:09:44 84 -4
77 00:28:09 BIDAULT Coline 18 FMI 00:09:07 64 6
78 00:28:14 POIZAT Jade 126 FMI 00:09:15 70 3
79 00:28:15 KERNIN Leo 84 MBE 00:11:10 116 -33
80 00:28:19 VELASCO Quentin 118 MBE 00:09:15 71 6
81 00:28:19 VAUTRIN Jules 94 MMI 00:09:48 88 -6
82 00:28:24 RIGAUD Garance 87 FMI 00:09:49 89 -5
83 00:28:33 TINCHANT Lola 131 FMI 00:09:59 95 -7
84 00:28:33 APPOINTAIRE Simon 111 MBE 00:09:18 74 8
85 00:28:51 BOURDIN Zacharie 68 MBE 00:09:16 72 14
86 00:28:54 JULIEN Noelie 52 FBE 00:09:46 86 3
87 00:28:54 PROST Garance 28 FMI 00:10:53 108 -20
88 00:29:05 TIRANZONI Maxime 58 MBE 00:08:54 53 20
89 00:29:05 GAUTHIER Anaïs 53 FMI 00:09:49 90 5
90 00:29:14 GLAVIEUX Gustave 91 MMI 00:08:47 50 19
91 00:29:18 MALVEZIN Pauline 12 FBE 00:10:13 101 -4
92 00:29:18 CLERGET Lise 4 FBE 00:10:03 97 1
93 00:29:19 VUILLEMIN Armance 117 FMI 00:10:13 103 -5
94 00:29:24 MORELLI Antoine 3 MBE 00:09:14 69 11
95 00:29:26 PROENCA Coline 60 FMI 00:10:09 100 0
96 00:29:26 OUBRE Jean baptiste 64 MBE 00:09:47 87 5
97 00:29:31 PAGES-FOUCHIER Jeanne 72 FMI 00:10:03 98 0
98 00:29:33 HAQUIN Jean 22 MMI 00:09:22 77 8
99 00:29:42 SIRIEIX Emilie 74 FBE 00:10:05 99 1
100 00:29:44 FURFARO Fantine 37 FBE 00:10:46 107 -21
101 00:30:02 CAILLER Victor 56 MBE 00:10:02 96 3
102 00:30:15 LARGER Lois 102 MBE 00:09:20 75 9
103 00:30:15 MORT CHEVASSUS Camille 86 FBE 00:11:12 119 -18
104 00:30:23 Concurrent inconnu 71 00:09:07 63 9
105 00:30:43 LEFEBVRE Jules 122 MBE 00:11:03 113 -3
106 00:30:45 MICHEL Lisa 21 FMI 00:11:19 120 -10
107 00:30:47 SMITH Tom 101 MBE 00:09:33 81 5
108 00:30:59 VIPREY Eva 23 FBE 00:11:00 110 -5
109 00:31:01 BARON Kiara 54 FBE 00:11:32 122 -11
110 00:31:05 POUGET Jean 124 MMI 00:09:29 78 8
111 00:31:16 GAUME Romane 120 FMI 00:12:14 127 -29
112 00:31:46 JANNIOT Lilou 8 FBE 00:09:31 80 10
113 00:31:49 CHIODIN Juliette 77 FMI 00:12:38 129 -22
114 00:32:13 PHILIP Jean 123 MBE 00:09:07 62 13
115 00:32:15 JACQUOT Loris 125 MMI 00:10:59 109 -1
116 00:32:26 FASSENET Lorette 89 FMI 00:11:03 112 0
117 00:32:39 ROULLIER Anael 73 MBE 00:11:01 111 2
118 00:33:06 FRACHON Emilie 108 FBE 00:11:10 117 2
119 00:33:11 TIRANZONI Camille 65 FMI 00:11:55 126 -4
120 00:33:17 BEUVE Karl 15 MBE 00:10:21 105 6
121 00:33:18 REBOUL Jeanne 7 FBE 00:11:41 124 -4
122 00:33:48 LILLETTE Paul-antoine 43 MMI 00:13:12 130 -12
123 00:33:54 MONROLIN Esther 115 FMI 00:11:08 115 2
124 00:33:58 JEANNIN Perrine 62 FMI 00:11:53 125 -3
125 00:33:59 DENIZOT Lara 34 FMI 00:11:37 123 -2
126 00:34:00 FRANCOIS Camille 95 FMI 00:10:27 106 3
127 00:34:38 DUCOS Loane 119 FBE 00:11:21 121 1
128 00:34:53 MAGNIEN Noémie 98 FMI 00:12:15 128 -4
129 00:35:45 BERNE Paul 140 MBE 00:11:08 114 1
130 00:36:03 HAQUIN Diane 20 FBE 00:11:10 118 2
131 00:39:38 LILLETTE Amélie 45 FBE 00:14:57 133 0
132 00:40:04 GALTAT Theo 138 MMI 00:13:59 132 1
133 00:41:03 CHERON Lucie 10 FPO 00:13:30 131 1


Restez connectés à vos performances